createdAt,value
2018-12-11T00:01:13.729Z,6.37
2018-12-11T00:03:41.152Z,9.08
2018-12-11T00:06:08.657Z,7.83
2018-12-11T00:08:36.083Z,7.00
2018-12-11T00:11:03.628Z,7.05
2018-12-11T00:13:31.069Z,7.30
2018-12-11T00:15:58.545Z,7.40
2018-12-11T00:18:25.975Z,9.25
2018-12-11T00:20:53.429Z,6.55
2018-12-11T00:23:20.853Z,10.45
2018-12-11T00:25:48.283Z,9.00
2018-12-11T00:28:15.712Z,7.80
2018-12-11T00:30:43.159Z,6.40
2018-12-11T00:33:10.576Z,7.45
2018-12-11T00:35:38.027Z,8.70
2018-12-11T00:38:05.535Z,5.15
2018-12-11T00:40:33.008Z,7.55
2018-12-11T00:43:00.475Z,9.28
2018-12-11T00:45:27.926Z,6.17
2018-12-11T00:47:55.368Z,5.72
2018-12-11T00:50:22.817Z,6.97
2018-12-11T00:52:50.240Z,5.90
2018-12-11T00:55:17.676Z,4.67
2018-12-11T00:57:45.104Z,7.60
2018-12-11T01:00:12.602Z,6.83
2018-12-11T01:02:40.032Z,6.30
2018-12-11T01:05:07.493Z,5.10
2018-12-11T01:07:34.912Z,3.72
2018-12-11T01:10:04.485Z,6.55
2018-12-11T01:12:31.944Z,5.03
2018-12-11T01:14:59.384Z,5.78
2018-12-11T01:17:26.821Z,6.42
2018-12-11T01:19:54.283Z,4.50
2018-12-11T01:22:21.724Z,4.80
2018-12-11T01:24:49.163Z,4.78
2018-12-11T01:27:16.596Z,5.45
2018-12-11T01:29:44.023Z,5.37
2018-12-11T01:32:11.475Z,5.55
2018-12-11T01:34:38.908Z,5.08
2018-12-11T01:37:06.345Z,5.00
2018-12-11T01:39:33.829Z,7.55
2018-12-11T01:42:01.295Z,3.72
2018-12-11T01:44:28.712Z,5.33
2018-12-11T01:46:56.207Z,4.80
2018-12-11T01:49:23.632Z,5.20
2018-12-11T01:51:51.148Z,12.45
2018-12-11T01:54:18.576Z,5.83
2018-12-11T01:56:46.029Z,4.20
2018-12-11T01:59:13.459Z,4.90
2018-12-11T02:01:40.977Z,4.30
2018-12-11T02:04:08.468Z,5.85
2018-12-11T02:06:35.902Z,6.40
2018-12-11T02:09:05.500Z,7.53
2018-12-11T02:11:33.728Z,8.53
2018-12-11T02:14:01.212Z,7.17
2018-12-11T02:16:28.685Z,7.50
2018-12-11T02:18:56.150Z,7.03
2018-12-11T02:21:23.604Z,10.03
2018-12-11T02:23:51.038Z,5.83
2018-12-11T02:26:18.490Z,6.15
2018-12-11T02:28:45.929Z,3.35
2018-12-11T02:31:13.363Z,5.45
2018-12-11T02:33:40.793Z,8.08
2018-12-11T02:36:08.229Z,4.22
2018-12-11T02:38:35.695Z,8.45
2018-12-11T02:41:03.214Z,9.58
2018-12-11T02:43:30.655Z,2.62
2018-12-11T02:45:58.133Z,6.00
2018-12-11T02:48:25.584Z,4.33
2018-12-11T02:50:53.024Z,5.60
2018-12-11T02:53:20.541Z,6.50
2018-12-11T02:55:47.973Z,7.00
2018-12-11T02:58:15.413Z,4.83
2018-12-11T03:00:43.704Z,6.45
2018-12-11T03:03:11.154Z,5.65
2018-12-11T03:05:38.667Z,3.75
2018-12-11T03:08:06.147Z,4.40
2018-12-11T03:10:33.564Z,7.35
2018-12-11T03:13:01.010Z,10.63
2018-12-11T03:15:28.475Z,10.03
2018-12-11T03:17:55.904Z,3.25
2018-12-11T03:20:23.328Z,10.23
2018-12-11T03:22:50.812Z,6.08
2018-12-11T03:25:18.240Z,5.28
2018-12-11T03:27:45.672Z,4.28
2018-12-11T03:30:13.107Z,3.12
2018-12-11T03:32:40.549Z,6.75
2018-12-11T03:35:08.005Z,8.05
2018-12-11T03:37:35.446Z,7.75
2018-12-11T03:40:03.756Z,4.60
2018-12-11T03:42:31.183Z,6.80
2018-12-11T03:44:58.667Z,4.70
2018-12-11T03:47:26.119Z,4.83
2018-12-11T03:49:53.569Z,5.33
2018-12-11T03:52:21.840Z,3.22
2018-12-11T03:54:49.410Z,3.33
2018-12-11T03:57:16.834Z,5.75
2018-12-11T03:59:44.279Z,6.72
2018-12-11T04:02:11.739Z,8.70
2018-12-11T04:04:39.168Z,6.85
2018-12-11T04:07:06.595Z,4.90
2018-12-11T04:09:34.026Z,10.85
2018-12-11T04:12:01.815Z,8.98
2018-12-11T04:14:29.282Z,7.50
2018-12-11T04:16:56.814Z,6.83
2018-12-11T04:19:24.254Z,6.40
2018-12-11T04:21:51.797Z,6.95
2018-12-11T04:24:19.221Z,4.72
2018-12-11T04:26:46.657Z,4.60
2018-12-11T04:29:14.120Z,5.08
2018-12-11T04:31:41.793Z,4.15
2018-12-11T04:34:09.327Z,5.65
2018-12-11T04:36:36.794Z,5.05
2018-12-11T04:39:05.945Z,8.10
2018-12-11T04:41:33.439Z,7.17
2018-12-11T04:44:00.881Z,7.33
2018-12-11T04:46:28.431Z,5.87
2018-12-11T04:48:55.844Z,4.15
2018-12-11T04:51:23.328Z,5.30
2018-12-11T04:53:50.763Z,4.85
2018-12-11T04:56:18.204Z,4.22
2018-12-11T04:58:45.654Z,4.75
2018-12-11T05:01:13.084Z,9.55
2018-12-11T05:03:40.536Z,3.80
2018-12-11T05:06:07.972Z,4.65
2018-12-11T05:08:35.414Z,5.70
2018-12-11T05:11:02.938Z,3.67
2018-12-11T05:13:30.368Z,6.87
2018-12-11T05:15:57.812Z,4.50
2018-12-11T05:18:25.268Z,5.72
2018-12-11T05:20:52.846Z,7.65
2018-12-11T05:23:20.269Z,4.58
2018-12-11T05:25:47.711Z,7.05
2018-12-11T05:28:15.138Z,7.47
2018-12-11T05:30:42.625Z,8.88
2018-12-11T05:33:10.139Z,4.22
2018-12-11T05:35:37.581Z,5.78
2018-12-11T05:38:05.012Z,4.35
2018-12-11T05:40:32.444Z,6.75
2018-12-11T05:42:59.883Z,5.22
2018-12-11T05:45:27.320Z,6.50
2018-12-11T05:47:54.746Z,7.85
2018-12-11T05:50:22.174Z,4.95
2018-12-11T05:52:49.597Z,3.17
2018-12-11T05:55:17.114Z,6.15
2018-12-11T05:57:44.542Z,3.65
2018-12-11T06:00:12.043Z,3.77
2018-12-11T06:02:39.459Z,5.03
2018-12-11T06:05:08.120Z,3.10
2018-12-11T06:07:35.585Z,4.22
2018-12-11T06:10:03.657Z,3.92
2018-12-11T06:12:31.107Z,4.30
2018-12-11T06:14:58.582Z,10.53
2018-12-11T06:17:26.009Z,3.05
2018-12-11T06:19:53.448Z,3.98
2018-12-11T06:22:20.891Z,6.87
2018-12-11T06:24:48.320Z,4.67
2018-12-11T06:27:15.755Z,5.05
2018-12-11T06:29:43.200Z,3.80
2018-12-11T06:32:10.656Z,4.15
2018-12-11T06:34:38.138Z,3.12
2018-12-11T06:37:05.617Z,3.75
2018-12-11T06:39:33.079Z,7.85
2018-12-11T06:42:00.588Z,3.90
2018-12-11T06:44:28.168Z,4.10
2018-12-11T06:46:55.595Z,3.27
2018-12-11T06:49:23.036Z,3.75
2018-12-11T06:51:50.464Z,5.83
2018-12-11T06:54:17.894Z,3.52
2018-12-11T06:56:45.324Z,6.30
2018-12-11T06:59:12.749Z,4.92
2018-12-11T07:01:40.194Z,6.87
2018-12-11T07:04:07.624Z,5.15
2018-12-11T07:06:35.086Z,5.53
2018-12-11T07:09:02.866Z,5.00
2018-12-11T07:11:30.310Z,9.43
2018-12-11T07:13:57.759Z,6.72
2018-12-11T07:16:25.238Z,4.55
2018-12-11T07:18:52.656Z,4.95
2018-12-11T07:21:20.134Z,4.90
2018-12-11T07:23:47.561Z,4.58
2018-12-11T07:26:15.028Z,3.98
2018-12-11T07:28:42.461Z,8.33
2018-12-11T07:31:09.919Z,3.72
2018-12-11T07:33:37.362Z,6.72
2018-12-11T07:36:04.843Z,5.17
2018-12-11T07:38:32.288Z,2.55
2018-12-11T07:40:59.716Z,3.47
2018-12-11T07:43:27.140Z,3.90
2018-12-11T07:45:54.577Z,4.58
2018-12-11T07:48:22.012Z,3.15
2018-12-11T07:50:49.444Z,3.58
2018-12-11T07:53:16.870Z,3.80
2018-12-11T07:55:44.301Z,4.83
2018-12-11T07:58:11.751Z,3.10
2018-12-11T08:00:39.214Z,3.62
2018-12-11T08:03:06.695Z,5.37
2018-12-11T08:05:34.181Z,4.00
2018-12-11T08:08:01.674Z,4.00
2018-12-11T08:10:29.143Z,3.00
2018-12-11T08:12:56.584Z,4.42
2018-12-11T08:15:24.049Z,5.58
2018-12-11T08:17:51.512Z,4.97
2018-12-11T08:20:18.943Z,4.78
2018-12-11T08:22:46.379Z,5.08
2018-12-11T08:25:13.831Z,4.33
2018-12-11T08:27:41.296Z,8.98
2018-12-11T08:30:08.796Z,4.42
2018-12-11T08:32:36.232Z,3.30
2018-12-11T08:35:03.968Z,6.17
2018-12-11T08:37:31.402Z,4.85
2018-12-11T08:39:58.876Z,5.20
2018-12-11T08:42:26.324Z,8.68
2018-12-11T08:44:54.405Z,4.75
2018-12-11T08:47:22.081Z,6.30
2018-12-11T08:49:49.557Z,5.10
2018-12-11T08:52:17.001Z,6.35
2018-12-11T08:54:44.436Z,5.20
2018-12-11T08:57:11.904Z,5.62
2018-12-11T08:59:39.374Z,4.75
2018-12-11T09:02:06.813Z,3.95
2018-12-11T09:04:34.268Z,4.22
2018-12-11T09:07:01.731Z,4.83
2018-12-11T09:09:29.279Z,4.12
2018-12-11T09:11:56.745Z,4.42
2018-12-11T09:14:24.181Z,6.62
2018-12-11T09:16:51.631Z,13.22
2018-12-11T09:19:19.069Z,4.47
2018-12-11T09:21:46.510Z,3.90
2018-12-11T09:24:13.969Z,4.25
2018-12-11T09:26:41.448Z,13.85
2018-12-11T09:29:08.904Z,7.60
2018-12-11T09:31:36.342Z,17.27
2018-12-11T09:34:03.808Z,7.70
2018-12-11T09:36:31.349Z,7.55
2018-12-11T09:38:58.775Z,5.47
2018-12-11T09:41:26.237Z,4.80
2018-12-11T09:43:53.664Z,4.87
2018-12-11T09:46:21.192Z,5.53
2018-12-11T09:48:48.706Z,3.72
2018-12-11T09:51:17.918Z,5.45
2018-12-11T09:53:45.485Z,7.50
2018-12-11T09:56:12.915Z,5.58
2018-12-11T09:58:40.349Z,8.05
2018-12-11T10:01:08.676Z,5.60
2018-12-11T10:03:36.151Z,4.65
2018-12-11T10:06:03.723Z,7.65
2018-12-11T10:08:31.197Z,6.53
2018-12-11T10:10:58.616Z,5.92
2018-12-11T10:13:26.061Z,6.72
2018-12-11T10:15:53.492Z,4.60
2018-12-11T10:18:20.924Z,5.47
2018-12-11T10:20:48.599Z,4.33
2018-12-11T10:23:16.636Z,7.05
2018-12-11T10:25:44.056Z,6.67
2018-12-11T10:28:11.526Z,6.15
2018-12-11T10:30:48.015Z,5.33
2018-12-11T10:33:15.722Z,6.65
2018-12-11T10:35:43.161Z,7.65
2018-12-11T10:38:10.666Z,5.33
2018-12-11T10:40:38.173Z,5.55
2018-12-11T10:43:05.609Z,9.38
2018-12-11T10:45:33.038Z,6.05
2018-12-11T10:48:00.504Z,5.47
2018-12-11T10:50:27.972Z,5.05
2018-12-11T10:52:55.580Z,5.92
2018-12-11T10:55:23.012Z,6.50
2018-12-11T10:57:50.580Z,6.80
2018-12-11T11:00:23.712Z,5.78
2018-12-11T11:02:56.888Z,6.03
2018-12-11T11:05:35.875Z,5.20
2018-12-11T11:08:03.450Z,9.48
2018-12-11T11:10:30.978Z,4.60
2018-12-11T11:12:58.484Z,7.30
2018-12-11T11:15:25.956Z,4.83
2018-12-11T11:17:53.418Z,5.37
2018-12-11T11:20:20.870Z,6.20
2018-12-11T11:22:48.341Z,7.17
2018-12-11T11:25:15.841Z,4.75
2018-12-11T11:27:43.334Z,6.03
2018-12-11T11:30:10.848Z,6.85
2018-12-11T11:32:38.378Z,9.55
2018-12-11T11:35:06.076Z,6.50
2018-12-11T11:37:33.648Z,7.35
2018-12-11T11:40:01.070Z,8.00
2018-12-11T11:42:28.880Z,7.22
2018-12-11T11:44:56.495Z,6.90
2018-12-11T11:47:23.960Z,8.73
2018-12-11T11:49:51.414Z,5.85
2018-12-11T11:52:18.907Z,6.97
2018-12-11T11:54:46.365Z,7.65
2018-12-11T11:57:13.877Z,7.55
2018-12-11T11:59:41.332Z,10.20
2018-12-11T12:02:08.809Z,6.78
2018-12-11T12:04:36.266Z,6.03
2018-12-11T12:07:03.839Z,7.80
2018-12-11T12:09:31.323Z,7.60
2018-12-11T12:11:58.857Z,7.55
2018-12-11T12:14:26.308Z,6.75
2018-12-11T12:16:53.784Z,6.35
2018-12-11T12:19:21.362Z,6.75
2018-12-11T12:21:48.836Z,8.38
2018-12-11T12:24:16.270Z,5.92
2018-12-11T12:26:43.708Z,14.60
2018-12-11T12:29:11.209Z,7.12
2018-12-11T12:31:38.648Z,6.05
2018-12-11T12:34:06.171Z,6.62
2018-12-11T12:36:33.638Z,5.80
2018-12-11T12:39:01.095Z,9.80
2018-12-11T12:41:28.545Z,8.15
2018-12-11T12:43:56.006Z,7.08
2018-12-11T12:46:23.417Z,7.35
2018-12-11T12:48:51.218Z,5.62
2018-12-11T12:51:18.662Z,10.98
2018-12-11T12:53:46.245Z,8.00
2018-12-11T12:56:13.727Z,8.25
2018-12-11T12:58:41.180Z,7.37
2018-12-11T13:01:08.665Z,10.05
2018-12-11T13:03:36.678Z,8.03
2018-12-11T13:06:04.337Z,7.20
2018-12-11T13:08:31.792Z,7.33
2018-12-11T13:10:59.222Z,5.53
2018-12-11T13:13:26.722Z,6.85
2018-12-11T13:15:54.219Z,8.53
2018-12-11T13:18:21.659Z,5.70
2018-12-11T13:20:49.109Z,8.73
2018-12-11T13:23:16.557Z,6.78
2018-12-11T13:25:44.004Z,9.03
2018-12-11T13:28:11.461Z,8.03
2018-12-11T13:30:38.884Z,7.72
2018-12-11T13:33:06.372Z,8.08
2018-12-11T13:35:33.833Z,6.30
2018-12-11T13:38:01.337Z,11.45
2018-12-11T13:40:28.852Z,5.70
2018-12-11T13:42:56.447Z,7.40
2018-12-11T13:45:23.861Z,6.72
2018-12-11T13:47:51.319Z,5.80
2018-12-11T13:50:18.908Z,6.10
2018-12-11T13:52:46.357Z,8.98
2018-12-11T13:55:13.805Z,7.80
2018-12-11T13:57:42.144Z,5.83
2018-12-11T14:00:09.677Z,4.97
2018-12-11T14:02:37.111Z,7.37
2018-12-11T14:05:05.004Z,8.30
2018-12-11T14:07:32.470Z,5.97
2018-12-11T14:09:59.929Z,9.28
2018-12-11T14:12:27.373Z,6.85
2018-12-11T14:14:54.832Z,7.70
2018-12-11T14:17:22.351Z,6.47
2018-12-11T14:19:49.805Z,6.75
2018-12-11T14:22:17.281Z,10.38
2018-12-11T14:24:44.754Z,6.55
2018-12-11T14:27:12.221Z,6.40
2018-12-11T14:29:39.729Z,8.70
2018-12-11T14:32:08.148Z,5.87
2018-12-11T14:34:35.579Z,7.25
2018-12-11T14:37:03.060Z,6.80
2018-12-11T14:39:30.655Z,9.75
2018-12-11T14:41:58.076Z,6.92
2018-12-11T14:44:25.649Z,10.58
2018-12-11T14:46:53.149Z,7.55
2018-12-11T14:49:20.660Z,6.28
2018-12-11T14:51:48.116Z,5.37
2018-12-11T14:54:15.627Z,5.40
2018-12-11T14:56:43.104Z,5.70
2018-12-11T14:59:10.547Z,5.67
2018-12-11T15:01:37.995Z,6.40
2018-12-11T15:04:05.452Z,5.70
2018-12-11T15:06:32.921Z,7.15
2018-12-11T15:12:02.885Z,5.95
2018-12-11T15:14:30.323Z,7.95
2018-12-11T15:16:57.822Z,6.67
2018-12-11T15:19:25.298Z,6.60
2018-12-11T15:21:52.802Z,6.30
2018-12-11T15:24:20.257Z,7.03
2018-12-11T15:26:47.712Z,10.40
2018-12-11T15:29:15.205Z,12.25
2018-12-11T15:31:42.650Z,5.95
2018-12-11T15:34:10.102Z,6.67
2018-12-11T15:36:37.616Z,8.73
2018-12-11T15:39:06.352Z,6.97
2018-12-11T15:41:33.922Z,6.47
2018-12-11T15:44:01.370Z,10.82
2018-12-11T15:46:29.028Z,6.85
2018-12-11T15:48:56.488Z,9.25
2018-12-11T15:51:24.030Z,8.55
2018-12-11T15:53:51.534Z,10.13
2018-12-11T15:56:19.025Z,9.63
2018-12-11T15:58:46.521Z,5.90
2018-12-11T16:01:13.977Z,8.80
2018-12-11T16:03:41.426Z,9.65
2018-12-11T16:06:08.952Z,8.43
2018-12-11T16:08:36.444Z,8.15
2018-12-11T16:11:03.989Z,7.58
2018-12-11T16:13:31.466Z,8.58
2018-12-11T16:15:58.938Z,12.03
2018-12-11T16:18:26.404Z,7.70
2018-12-11T16:20:53.904Z,12.88
2018-12-11T16:23:21.421Z,9.63
2018-12-11T16:25:48.990Z,8.08
2018-12-11T16:28:16.455Z,6.10
2018-12-11T16:30:44.059Z,8.88
2018-12-11T16:33:11.576Z,9.85
2018-12-11T16:35:39.061Z,9.23
2018-12-11T16:38:06.520Z,8.90
2018-12-11T16:40:34.034Z,8.00
2018-12-11T16:43:01.611Z,8.60
2018-12-11T16:45:29.081Z,7.85
2018-12-11T16:47:56.563Z,10.93
2018-12-11T16:50:24.063Z,7.45
2018-12-11T16:52:51.529Z,8.68
2018-12-11T16:55:19.012Z,8.30
2018-12-11T16:57:46.479Z,7.10
2018-12-11T17:00:14.765Z,6.35
2018-12-11T17:02:42.346Z,8.33
2018-12-11T17:05:09.949Z,10.68
2018-12-11T17:07:37.424Z,9.68
2018-12-11T17:10:05.280Z,10.55
2018-12-11T17:12:32.921Z,7.47
2018-12-11T17:15:02.848Z,11.83
2018-12-11T17:17:30.569Z,12.53
2018-12-11T17:19:58.012Z,9.40
2018-12-11T17:22:25.448Z,7.33
2018-12-11T17:24:52.904Z,10.25
2018-12-11T17:27:20.345Z,8.03
2018-12-11T17:29:47.799Z,8.48
2018-12-11T17:32:15.297Z,11.90
2018-12-11T17:34:42.767Z,8.73
2018-12-11T17:37:10.230Z,10.40
2018-12-11T17:39:37.668Z,8.85
2018-12-11T17:42:05.273Z,9.23
2018-12-11T17:44:32.713Z,9.55
2018-12-11T17:47:00.191Z,12.43
2018-12-11T17:49:27.640Z,7.70
2018-12-11T17:51:55.071Z,7.65
2018-12-11T17:54:22.501Z,9.98
2018-12-11T17:56:50.004Z,7.75
2018-12-11T17:59:17.483Z,7.45
2018-12-11T18:01:46.598Z,8.78
2018-12-11T18:04:14.070Z,12.47
2018-12-11T18:06:41.609Z,12.43
2018-12-11T18:09:09.252Z,9.63
2018-12-11T18:11:36.926Z,12.90
2018-12-11T18:14:04.393Z,11.15
2018-12-11T18:16:31.827Z,7.70
2018-12-11T18:18:59.280Z,10.58
2018-12-11T18:21:26.727Z,7.87
2018-12-11T18:23:54.195Z,11.63
2018-12-11T18:26:21.699Z,8.90
2018-12-11T18:28:49.137Z,8.73
2018-12-11T18:31:16.564Z,6.87
2018-12-11T18:33:43.997Z,9.80
2018-12-11T18:36:11.443Z,8.93
2018-12-11T18:38:38.915Z,15.30
2018-12-11T18:41:06.396Z,10.15
2018-12-11T18:43:33.825Z,8.53
2018-12-11T18:46:01.328Z,9.88
2018-12-11T18:48:28.947Z,12.23
2018-12-11T18:50:56.368Z,9.08
2018-12-11T18:53:23.798Z,9.63
2018-12-11T18:55:51.301Z,12.20
2018-12-11T18:58:18.818Z,11.85
2018-12-11T19:00:46.301Z,8.90
2018-12-11T19:03:13.728Z,9.00
2018-12-11T19:05:41.156Z,10.70
2018-12-11T19:08:08.606Z,9.45
2018-12-11T19:10:36.047Z,9.85
2018-12-11T19:13:03.510Z,8.45
2018-12-11T19:15:31.022Z,10.72
2018-12-11T19:17:58.462Z,9.45
2018-12-11T19:20:25.956Z,10.90
2018-12-11T19:22:55.051Z,10.50
2018-12-11T19:25:22.643Z,13.18
2018-12-11T19:27:50.112Z,16.85
2018-12-11T19:30:17.750Z,11.93
2018-12-11T19:32:45.170Z,9.10
2018-12-11T19:35:12.642Z,13.40
2018-12-11T19:37:40.106Z,12.68
2018-12-11T19:40:07.885Z,14.90
2018-12-11T19:42:36.629Z,11.00
2018-12-11T19:45:05.669Z,12.82
2018-12-11T19:47:33.105Z,14.87
2018-12-11T19:50:00.548Z,17.85
2018-12-11T19:52:29.411Z,11.03
2018-12-11T19:54:56.934Z,15.83
2018-12-11T19:57:24.372Z,14.13
2018-12-11T19:59:51.875Z,11.45
2018-12-11T20:02:19.300Z,10.90
2018-12-11T20:04:46.753Z,10.98
2018-12-11T20:07:14.191Z,11.78
2018-12-11T20:09:43.686Z,10.93
2018-12-11T20:12:11.139Z,18.45
2018-12-11T20:14:38.630Z,11.95
2018-12-11T20:17:06.089Z,14.00
2018-12-11T20:19:33.516Z,12.40
2018-12-11T20:22:00.981Z,10.15
2018-12-11T20:24:28.451Z,9.75
2018-12-11T20:26:55.929Z,8.53
2018-12-11T20:29:23.404Z,10.25
2018-12-11T20:31:50.882Z,10.93
2018-12-11T20:34:18.350Z,9.13
2018-12-11T20:36:45.790Z,9.35
2018-12-11T20:39:13.263Z,12.68
2018-12-11T20:41:40.832Z,13.45
2018-12-11T20:44:08.306Z,13.38
2018-12-11T20:46:35.835Z,11.63
2018-12-11T20:49:04.741Z,12.00
2018-12-11T20:51:32.460Z,12.50
2018-12-11T20:53:59.913Z,11.00
2018-12-11T20:56:27.369Z,13.08
2018-12-11T20:58:54.809Z,12.37
2018-12-11T21:01:22.252Z,10.00
2018-12-11T21:03:49.696Z,15.40
2018-12-11T21:06:17.165Z,15.08
2018-12-11T21:08:44.735Z,11.03
2018-12-11T21:11:12.165Z,14.30
2018-12-11T21:13:39.637Z,12.28
2018-12-11T21:16:11.004Z,11.78
2018-12-11T21:18:36.533Z,13.18
2018-12-11T21:21:04.030Z,10.80
2018-12-11T21:23:31.595Z,12.25
2018-12-11T21:25:59.009Z,11.63
2018-12-11T21:28:26.482Z,13.00
2018-12-11T21:30:53.978Z,12.73
2018-12-11T21:33:21.555Z,11.85
2018-12-11T21:35:48.968Z,10.80
2018-12-11T21:38:16.432Z,10.45
2018-12-11T21:40:43.938Z,9.83
2018-12-11T21:43:11.517Z,9.78
2018-12-11T21:45:38.990Z,12.18
2018-12-11T21:48:06.464Z,11.00
2018-12-11T21:50:33.955Z,14.25
2018-12-11T21:53:01.455Z,8.93
2018-12-11T21:55:28.956Z,12.82
2018-12-11T22:00:36.870Z,10.78
2018-12-11T22:03:04.325Z,10.75
2018-12-11T22:05:31.809Z,9.58
2018-12-11T22:07:59.393Z,12.35
2018-12-11T22:10:26.854Z,8.25
2018-12-11T22:12:54.335Z,8.88
2018-12-11T22:15:21.824Z,9.83
2018-12-11T22:17:49.259Z,11.05
2018-12-11T22:20:16.710Z,13.15
2018-12-11T22:22:44.220Z,11.38
2018-12-11T22:25:11.670Z,13.10
2018-12-11T22:27:39.134Z,9.58
2018-12-11T22:30:06.704Z,8.75
2018-12-11T22:32:34.148Z,11.95
2018-12-11T22:35:01.653Z,10.35
2018-12-11T22:37:29.243Z,8.63
2018-12-11T22:39:56.794Z,8.63
2018-12-11T22:42:24.246Z,10.35
2018-12-11T22:44:51.753Z,9.68
2018-12-11T22:47:19.239Z,13.48
2018-12-11T22:49:46.665Z,7.15
2018-12-11T22:52:14.165Z,9.78
2018-12-11T22:54:41.857Z,10.35
2018-12-11T22:57:09.368Z,9.38
2018-12-11T22:59:36.856Z,11.68
2018-12-11T23:02:04.455Z,16.32
2018-12-11T23:04:31.974Z,11.53
2018-12-11T23:06:59.537Z,11.08
2018-12-11T23:09:27.273Z,16.00
2018-12-11T23:11:54.749Z,11.05
2018-12-11T23:14:22.185Z,15.98
2018-12-11T23:16:49.666Z,15.58
2018-12-11T23:19:17.150Z,12.05
2018-12-11T23:21:44.642Z,12.13
2018-12-11T23:24:12.122Z,10.50
2018-12-11T23:26:39.577Z,9.25
2018-12-11T23:29:07.121Z,9.90
2018-12-11T23:31:34.671Z,12.78
2018-12-11T23:34:02.145Z,11.40
2018-12-11T23:36:29.603Z,10.68
2018-12-11T23:38:57.072Z,11.25
2018-12-11T23:41:24.553Z,10.72
2018-12-11T23:43:52.040Z,10.58
2018-12-11T23:46:19.531Z,10.58
2018-12-11T23:48:47.003Z,14.75
2018-12-11T23:51:14.463Z,8.83
2018-12-11T23:53:41.955Z,12.20
2018-12-11T23:56:09.412Z,11.15
2018-12-11T23:58:36.904Z,13.50
